Time;durP1;ratioP1;P1;durP2;ratioP2;P2;SDS_P1;SDS_P2;PMS_P1;PMS_P2;Temp;Humidity;BMP_temperature;BMP_pressure;BME280_temperature;BME280_humidity;BME280_pressure;Samples;Min_cycle;Max_cycle;Signal;HPM_P1;HPM_P2
2023/02/13 17:17:20;;;;;;;10.32;6.55;;;;;;;3.15;100.00;100909.81;5138441;27;20358;-79
2023/02/13 17:19:47;;;;;;;13.77;6.97;;;;;;;3.09;100.00;100897.59;5082831;28;20052;-79
2023/02/13 17:22:22;;;;;;;13.57;7.13;;;;;;;3.22;100.00;100921.88;5086426;28;20059;-79
2023/02/13 17:24:49;;;;;;;15.60;8.30;;;;;;;3.06;100.00;100902.31;5082166;28;20051;-78
2023/02/13 17:27:15;;;;;;;14.13;7.20;;;;;;;3.18;100.00;100929.28;5085827;28;20059;-79
2023/02/13 17:29:42;;;;;;;12.32;7.35;;;;;;;3.13;100.00;100931.41;5082745;28;20198;-79
2023/02/13 17:32:14;;;;;;;16.35;8.40;;;;;;;2.94;100.00;100915.53;5079452;28;20048;-78
2023/02/13 17:34:42;;;;;;;13.88;7.25;;;;;;;3.07;100.00;100936.28;5082363;28;20067;-79
2023/02/13 17:37:16;;;;;;;15.23;8.23;;;;;;;2.94;100.00;100947.75;5085337;28;20053;-79
2023/02/13 17:39:42;;;;;;;13.75;7.53;;;;;;;2.77;100.00;100935.34;5075297;28;20059;-79
2023/02/13 17:42:14;;;;;;;14.30;7.80;;;;;;;2.72;100.00;100940.09;5084545;28;20063;-79
2023/02/13 17:44:43;;;;;;;12.45;7.30;;;;;;;2.58;100.00;100950.81;5081279;28;20037;-79
2023/02/13 17:47:09;;;;;;;12.32;7.32;;;;;;;2.29;100.00;100938.13;5084340;28;20473;-78
2023/02/13 17:49:36;;;;;;;15.20;7.63;;;;;;;2.23;100.00;100941.16;5082045;28;20054;-79
2023/02/13 17:52:04;;;;;;;16.85;8.35;;;;;;;2.23;100.00;100942.97;5082247;28;20062;-79
2023/02/13 17:54:31;;;;;;;17.00;8.60;;;;;;;2.23;100.00;100954.59;5083377;28;20053;-79
2023/02/13 17:57:01;;;;;;;11.07;6.93;;;;;;;2.23;100.00;100959.94;5081126;28;20495;-79
2023/02/13 17:59:28;;;;;;;;;;;;;;;2.26;100.00;100966.97;5087126;28;20140;-78
2023/02/13 18:01:55;;;;;;;16.65;7.30;;;;;;;2.22;100.00;100978.81;5081688;28;19963;-79
2023/02/13 18:04:21;;;;;;;15.15;8.10;;;;;;;2.25;100.00;100976.81;5074441;28;20407;-78
2023/02/13 18:06:52;;;;;;;14.60;7.25;;;;;;;2.06;100.00;100963.59;5083445;28;20052;-79
2023/02/13 18:09:21;;;;;;;12.50;7.50;;;;;;;1.99;100.00;100967.56;5076427;28;20756;-79
2023/02/13 18:11:49;;;;;;;17.35;8.80;;;;;;;2.00;100.00;100977.31;5082582;28;20052;-79
2023/02/13 18:14:16;;;;;;;13.52;7.32;;;;;;;1.87;100.00;100952.16;5084682;28;20060;-78
2023/02/13 18:16:43;;;;;;;15.77;8.82;;;;;;;1.88;100.00;100968.16;5075479;28;20418;-79
2023/02/13 18:19:09;;;;;;;16.38;9.65;;;;;;;1.90;100.00;100976.97;5078065;28;20047;-78
2023/02/13 18:21:36;;;;;;;19.30;8.50;;;;;;;1.83;100.00;100972.91;5081556;28;20326;-78
2023/02/13 18:24:02;;;;;;;18.00;9.00;;;;;;;1.84;100.00;100979.16;5081157;28;20049;-78
2023/02/13 18:26:30;;;;;;;15.30;8.48;;;;;;;1.81;100.00;100974.81;5079923;28;20053;-78
2023/02/13 18:28:57;;;;;;;16.05;8.50;;;;;;;1.81;100.00;100984.66;5068483;28;20044;-79
2023/02/13 18:31:23;;;;;;;17.20;9.27;;;;;;;1.74;100.00;100997.53;5069912;28;20732;-79
2023/02/13 18:33:50;;;;;;;18.15;9.07;;;;;;;1.66;100.00;100984.56;5066846;28;20045;-79
2023/02/13 18:36:16;;;;;;;18.88;9.88;;;;;;;1.49;100.00;100971.19;5069511;28;20048;-79
2023/02/13 18:38:43;;;;;;;19.40;9.73;;;;;;;1.46;100.00;100971.34;5060165;28;20048;-79
2023/02/13 18:41:09;;;;;;;21.10;9.43;;;;;;;1.36;100.00;100974.53;5068817;28;20060;-78
2023/02/13 18:43:37;;;;;;;16.63;9.30;;;;;;;1.41;100.00;100991.22;5065555;28;20048;-78
2023/02/13 18:46:04;;;;;;;18.15;9.20;;;;;;;1.35;100.00;100982.66;5064537;28;20059;-79
2023/02/13 18:48:31;;;;;;;26.98;12.18;;;;;;;1.27;100.00;100976.84;5065629;28;20522;-79
2023/02/13 18:50:59;;;;;;;15.10;8.20;;;;;;;1.09;100.00;100971.50;5065074;28;20053;-79
2023/02/13 18:53:26;;;;;;;19.23;8.95;;;;;;;1.06;100.00;100974.31;5065465;28;20045;-79
2023/02/13 18:56:00;;;;;;;14.88;7.32;;;;;;;1.19;100.00;101001.31;5067893;28;20051;-79
2023/02/13 18:58:26;;;;;;;16.85;8.57;;;;;;;1.06;100.00;100993.94;5064897;28;20052;-79
2023/02/13 19:00:54;;;;;;;21.90;9.32;;;;;;;0.90;100.00;100974.25;5065384;28;20147;-79
2023/02/13 19:03:21;;;;;;;16.65;8.00;;;;;;;0.97;100.00;100993.56;5068618;28;20052;-79
2023/02/13 19:05:47;;;;;;;15.60;8.63;;;;;;;0.98;100.00;100997.94;5065984;28;20047;-79
2023/02/13 19:08:14;;;;;;;19.25;8.43;;;;;;;0.87;100.00;100988.66;5067791;28;20048;-79
2023/02/13 19:10:41;;;;;;;15.20;8.73;;;;;;;1.04;100.00;100998.50;5063906;28;20517;-79
2023/02/13 19:13:07;;;;;;;25.83;10.05;;;;;;;0.99;100.00;100972.91;5066780;28;20051;-79
2023/02/13 19:15:35;;;;;;;28.15;10.30;;;;;;;1.05;100.00;100994.91;5069272;28;20395;-79
2023/02/13 19:18:03;;;;;;;19.33;9.32;;;;;;;0.97;100.00;100990.88;5067002;28;20047;-79
2023/02/13 19:20:30;;;;;;;22.88;10.02;;;;;;;0.94;100.00;100981.19;5067090;28;20052;-79
2023/02/13 19:22:57;;;;;;;19.45;10.32;;;;;;;0.87;100.00;100980.63;5067961;28;20040;-79
2023/02/13 19:25:23;;;;;;;21.45;10.13;;;;;;;0.77;100.00;100974.00;5068899;28;20059;-80
2023/02/13 19:27:49;;;;;;;20.65;9.77;;;;;;;0.86;100.00;100996.78;5069632;28;20048;-79
2023/02/13 19:30:16;;;;;;;19.88;9.50;;;;;;;0.83;100.00;100989.75;5066334;28;20053;-79
2023/02/13 19:32:43;;;;;;;14.18;8.25;;;;;;;0.68;100.00;100975.34;5067733;28;20048;-79
2023/02/13 19:35:11;;;;;;;18.65;9.10;;;;;;;0.63;100.00;100984.53;5069259;28;20056;-79
2023/02/13 19:37:37;;;;;;;18.83;9.30;;;;;;;0.74;100.00;100995.59;5062623;28;20500;-79
2023/02/13 19:40:04;;;;;;;17.58;8.85;;;;;;;0.68;100.00;100994.06;5066061;28;20044;-79
2023/02/13 19:42:31;;;;;;;17.00;8.65;;;;;;;0.79;100.00;101001.56;5063464;28;20053;-79
2023/02/13 19:44:57;;;;;;;16.60;8.95;;;;;;;0.59;100.00;100994.53;5068534;28;20051;-79
2023/02/13 19:47:24;;;;;;;17.45;8.70;;;;;;;0.58;100.00;100981.22;5067961;28;20048;-79
2023/02/13 19:49:50;;;;;;;22.48;10.68;;;;;;;0.55;100.00;100979.56;5062682;28;20071;-79
2023/02/13 19:52:18;;;;;;;20.45;9.00;;;;;;;0.47;100.00;100973.75;5063737;28;20063;-79
2023/02/13 19:54:45;;;;;;;23.38;10.20;;;;;;;0.59;100.00;100991.88;5067818;28;20052;-79
2023/02/13 19:57:13;;;;;;;23.00;11.25;;;;;;;0.64;100.00;100986.28;5067161;28;20059;-79
2023/02/13 19:59:40;;;;;;;21.58;9.85;;;;;;;0.49;100.00;100963.81;5066619;28;20053;-79
2023/02/13 20:02:06;;;;;;;20.40;10.65;;;;;;;0.51;100.00;100991.34;5063572;28;20450;-79
2023/02/13 20:04:35;;;;;;;22.30;10.00;;;;;;;0.46;100.00;100988.06;5068345;28;20435;-79
2023/02/13 20:07:02;;;;;;;23.33;9.57;;;;;;;0.43;100.00;100996.25;5065803;28;20127;-79
2023/02/13 20:09:30;;;;;;;21.38;9.60;;;;;;;0.31;100.00;100989.66;5063418;28;20052;-79
2023/02/13 20:11:56;;;;;;;22.80;9.90;;;;;;;0.33;100.00;100999.38;5063878;28;20044;-79
2023/02/13 20:14:23;;;;;;;21.88;9.75;;;;;;;0.11;100.00;100980.78;5064181;28;20451;-79
2023/02/13 20:16:49;;;;;;;20.08;10.18;;;;;;;0.13;100.00;100980.72;5065637;28;20041;-79
2023/02/13 20:19:16;;;;;;;22.45;10.38;;;;;;;0.12;100.00;100970.94;5064020;28;20067;-79
2023/02/13 20:21:43;;;;;;;20.20;10.00;;;;;;;0.27;100.00;101004.13;5066933;28;20121;-79
2023/02/13 20:24:10;;;;;;;21.05;10.13;;;;;;;0.11;100.00;100990.63;5061952;28;20077;-79
2023/02/13 20:26:39;;;;;;;20.92;10.43;;;;;;;0.20;100.00;100998.22;5067507;28;20049;-79
2023/02/13 20:29:05;;;;;;;22.83;9.88;;;;;;;0.06;100.00;100990.84;5066638;28;20045;-79
2023/02/13 20:31:33;;;;;;;18.80;9.85;;;;;;;0.06;100.00;101001.56;5066978;28;20048;-79
2023/02/13 20:34:00;;;;;;;20.73;9.85;;;;;;;-0.05;100.00;100987.81;5068316;28;20056;-80
2023/02/13 20:36:28;;;;;;;20.30;10.68;;;;;;;0.02;100.00;100999.09;5052454;28;20053;-79
2023/02/13 20:38:58;;;;;;;25.52;11.68;;;;;;;-0.10;100.00;100987.16;5063960;28;20045;-79
2023/02/13 20:41:27;;;;;;;19.95;9.43;;;;;;;-0.07;100.00;100992.38;5063351;28;20049;-79
2023/02/13 20:43:57;;;;;;;21.67;10.43;;;;;;;-0.04;100.00;101000.25;5064410;28;20056;-79
2023/02/13 20:46:23;;;;;;;17.80;10.15;;;;;;;-0.05;100.00;101003.84;5066844;28;20055;-79
2023/02/13 20:48:50;;;;;;;20.52;10.02;;;;;;;-0.16;100.00;100993.66;5066310;28;20410;-79
2023/02/13 20:51:18;;;;;;;23.40;10.13;;;;;;;-0.12;100.00;100995.25;5063250;28;20048;-79
2023/02/13 20:53:45;;;;;;;24.15;10.82;;;;;;;-0.07;100.00;100998.56;5064262;28;20044;-79
2023/02/13 20:56:13;;;;;;;19.85;10.30;;;;;;;-0.22;100.00;100991.28;5063705;28;20049;-79
2023/02/13 20:58:41;;;;;;;23.33;10.95;;;;;;;-0.16;100.00;100988.31;5063050;28;20863;-79
2023/02/13 21:01:20;;;;;;;22.70;11.57;;;;;;;-0.34;100.00;100962.44;5062260;28;20049;-79
2023/02/13 21:03:52;;;;;;;19.73;10.82;;;;;;;-0.33;100.00;100980.19;5065528;28;20040;-79
2023/02/13 21:06:19;;;;;;;22.25;9.73;;;;;;;-0.40;100.00;100968.94;5069903;28;20549;-79
2023/02/13 21:08:46;;;;;;;23.77;11.10;;;;;;;-0.39;100.00;100989.38;5070033;28;20051;-79
2023/02/13 21:11:15;;;;;;;22.65;10.95;;;;;;;-0.43;100.00;100961.06;5070235;28;20480;-79
2023/02/13 21:13:42;;;;;;;19.98;10.23;;;;;;;-0.39;100.00;100966.19;5068723;28;20044;-79
2023/02/13 21:16:10;;;;;;;25.25;12.20;;;;;;;-0.41;100.00;100967.19;5065221;28;20500;-79
2023/02/13 21:18:39;;;;;;;23.30;11.23;;;;;;;-0.42;100.00;100971.69;5066452;28;20052;-79
2023/02/13 21:21:06;;;;;;;26.90;12.15;;;;;;;-0.50;100.00;100971.16;5067234;28;20044;-79
2023/02/13 21:23:34;;;;;;;25.70;12.23;;;;;;;-0.55;100.00;100958.00;5069130;28;20037;-79
2023/02/13 21:26:04;;;;;;;19.45;11.05;;;;;;;-0.62;100.00;100961.88;5069449;28;20060;-79
2023/02/13 21:28:31;;;;;;;26.77;11.13;;;;;;;-0.56;100.00;100972.31;5068122;28;20053;-79
2023/02/13 21:30:58;;;;;;;26.08;11.32;;;;;;;-0.62;100.00;100972.56;5064947;28;20053;-79
2023/02/13 21:33:25;;;;;;;23.30;11.13;;;;;;;-0.61;100.00;100968.09;5066203;28;20139;-79
2023/02/13 21:36:01;;;;;;;23.30;11.82;;;;;;;-0.67;100.00;100961.22;5069860;28;20051;-79
2023/02/13 21:38:27;;;;;;;22.23;11.43;;;;;;;-0.76;100.00;100948.28;5062448;28;20044;-79
2023/02/13 21:40:54;;;;;;;23.88;11.80;;;;;;;-0.75;100.00;100953.56;5069671;28;20052;-79
2023/02/13 21:43:22;;;;;;;27.48;12.60;;;;;;;-0.75;100.00;100964.25;5068736;28;20048;-79
2023/02/13 21:45:48;;;;;;;26.40;13.45;;;;;;;-0.78;100.00;100943.03;5064889;28;20049;-79
2023/02/13 21:48:15;;;;;;;33.00;14.27;;;;;;;-0.90;100.00;100944.44;5063140;28;20491;-79
2023/02/13 21:50:41;;;;;;;24.38;12.15;;;;;;;-0.77;100.00;100967.91;5066352;28;20041;-79
2023/02/13 21:53:09;;;;;;;26.05;12.02;;;;;;;-0.70;100.00;100968.53;5076734;28;20078;-79
2023/02/13 21:55:36;;;;;;;28.90;12.00;;;;;;;-0.77;100.00;100952.78;5076347;28;20041;-79
2023/02/13 21:58:02;;;;;;;27.33;12.80;;;;;;;-0.92;100.00;100943.63;5068694;28;20444;-79
2023/02/13 22:00:29;;;;;;;27.10;12.80;;;;;;;-0.90;100.00;100954.25;5068283;28;20052;-79
2023/02/13 22:02:55;;;;;;;31.55;14.32;;;;;;;-0.79;100.00;100957.31;5069575;28;20119;-78
2023/02/13 22:05:22;;;;;;;28.92;13.38;;;;;;;-0.73;100.00;100957.03;5070227;28;20355;-79
2023/02/13 22:10:34;;;;;;;26.80;12.48;;;;;;;-0.91;100.00;100937.34;5072759;28;20059;-79
2023/02/13 22:13:00;;;;;;;25.00;11.70;;;;;;;-0.82;100.00;100965.44;5071956;28;20135;-79
2023/02/13 22:15:27;;;;;;;28.48;13.38;;;;;;;-0.80;100.00;100965.38;5071281;28;20048;-79
2023/02/13 22:17:54;;;;;;;27.98;13.55;;;;;;;-0.93;100.00;100939.22;5072940;28;20049;-79
2023/02/13 22:20:21;;;;;;;30.67;13.48;;;;;;;-0.85;100.00;100957.56;5070411;28;20404;-79
2023/02/13 22:22:47;;;;;;;27.60;13.65;;;;;;;-0.74;100.00;100962.44;5071436;28;20049;-79
2023/02/13 22:25:14;;;;;;;30.40;14.43;;;;;;;-0.91;100.00;100948.03;5078634;28;20495;-78
2023/02/13 22:27:47;;;;;;;29.65;14.45;;;;;;;-0.75;100.00;100956.22;5076035;28;20054;-78
2023/02/13 22:30:14;;;;;;;26.33;12.60;;;;;;;-0.90;100.00;100954.25;5080601;28;20056;-78
2023/02/13 22:32:42;;;;;;;27.38;13.32;;;;;;;-0.81;100.00;100947.63;5086873;28;20133;-79
2023/02/13 22:35:09;;;;;;;24.77;13.07;;;;;;;-0.89;100.00;100958.63;5074868;28;20055;-77
2023/02/13 22:37:36;;;;;;;25.85;13.32;;;;;;;-0.83;100.00;100962.84;5071137;28;20097;-78
2023/02/13 22:40:03;;;;;;;26.65;12.77;;;;;;;-1.03;100.00;100935.22;5075840;28;20048;-78
2023/02/13 22:42:29;;;;;;;27.52;14.02;;;;;;;-0.88;100.00;100976.41;5074406;28;20676;-79
2023/02/13 22:44:57;;;;;;;25.45;12.05;;;;;;;-0.87;100.00;100969.25;5072046;28;20044;-78
2023/02/13 22:47:24;;;;;;;27.38;12.98;;;;;;;-0.91;100.00;100964.03;5070031;28;20051;-78
2023/02/13 22:49:50;;;;;;;31.02;13.98;;;;;;;-1.01;100.00;100954.72;5068403;28;20391;-79
2023/02/13 22:52:17;;;;;;;28.42;12.70;;;;;;;-0.97;100.00;100972.31;5067199;28;20121;-78
2023/02/13 22:54:43;;;;;;;29.10;14.25;;;;;;;-1.01;100.00;100969.84;5079293;28;20071;-79
2023/02/13 22:57:10;;;;;;;29.33;13.13;;;;;;;-1.04;100.00;100961.97;5071232;28;20059;-78
2023/02/13 22:59:36;;;;;;;28.05;14.32;;;;;;;-0.97;100.00;100963.47;5072185;28;20041;-79
2023/02/13 23:02:05;;;;;;;30.20;14.25;;;;;;;-1.15;100.00;100935.75;5071824;28;20404;-78
2023/02/13 23:04:32;;;;;;;31.98;14.30;;;;;;;-0.88;100.00;100962.19;5072517;28;20459;-79
2023/02/13 23:06:58;;;;;;;32.15;14.13;;;;;;;-1.03;100.00;100947.72;5071792;28;20048;-79
2023/02/13 23:09:25;;;;;;;29.77;13.77;;;;;;;-0.96;100.00;100957.19;5070506;28;20047;-78
2023/02/13 23:14:50;;;;;;;29.60;12.35;;;;;;;-1.03;100.00;100945.03;5026329;28;20046;-79
2023/02/13 23:20:02;;;;;;;26.20;12.93;;;;;;;-1.03;100.00;100969.06;5062601;28;20116;-78
2023/02/13 23:22:29;;;;;;;32.33;13.20;;;;;;;-1.03;100.00;100963.72;5075872;28;20052;-78
2023/02/13 23:24:55;;;;;;;26.10;13.80;;;;;;;-1.05;100.00;100969.13;5066854;28;20051;-78
2023/02/13 23:27:22;;;;;;;30.73;14.30;;;;;;;-1.20;100.00;100937.78;5060658;28;20411;-78
2023/02/13 23:29:48;;;;;;;29.80;13.70;;;;;;;-1.09;100.00;100963.03;5069523;28;20066;-78
2023/02/13 23:32:15;;;;;;;39.78;14.18;;;;;;;-1.12;100.00;100955.16;5070262;28;20091;-79
2023/02/13 23:34:43;;;;;;;36.08;13.50;;;;;;;-1.18;100.00;100957.25;5069569;28;20041;-78
2023/02/13 23:37:09;;;;;;;33.58;14.18;;;;;;;-1.23;100.00;100943.22;5060553;28;20051;-78
2023/02/13 23:39:36;;;;;;;28.60;12.95;;;;;;;-1.33;100.00;100929.41;5063911;28;20052;-79
2023/02/13 23:42:03;;;;;;;29.58;14.25;;;;;;;-1.29;100.00;100945.22;5055562;28;20056;-78
2023/02/13 23:44:29;;;;;;;29.40;13.75;;;;;;;-1.38;100.00;100940.28;5067737;28;20040;-79
2023/02/13 23:46:56;;;;;;;30.52;12.73;;;;;;;-1.21;100.00;100925.34;5068650;28;20411;-79
2023/02/13 23:49:22;;;;;;;33.35;13.25;;;;;;;-1.25;100.00;100919.25;5067556;28;20047;-79
2023/02/13 23:51:50;;;;;;;31.40;13.43;;;;;;;-1.41;100.00;100916.41;5062069;28;20052;-79
2023/02/13 23:54:18;;;;;;;32.88;14.70;;;;;;;-1.18;100.00;100943.91;5067514;28;20048;-78
2023/02/13 23:56:45;;;;;;;33.35;14.73;;;;;;;-1.30;100.00;100934.63;5066189;28;20431;-79
2023/02/13 23:59:12;;;;;;;25.08;12.13;;;;;;;-1.36;100.00;100930.41;5070205;28;20432;-79
